createdAt,value
2023-04-15T00:00:49.089Z,2.40
2023-04-15T00:03:57.274Z,2.95
2023-04-15T00:06:59.135Z,2.45
2023-04-15T00:10:02.354Z,2.28
2023-04-15T00:13:06.781Z,1.90
2023-04-15T00:16:11.585Z,2.20
2023-04-15T00:19:25.510Z,1.75
2023-04-15T00:22:29.974Z,2.13
2023-04-15T00:25:31.663Z,2.15
2023-04-15T00:28:35.967Z,2.00
2023-04-15T00:31:38.414Z,1.70
2023-04-15T00:34:39.963Z,1.60
2023-04-15T00:37:48.561Z,1.90
2023-04-15T00:40:50.243Z,1.50
2023-04-15T00:43:52.162Z,1.73
2023-04-15T00:46:54.081Z,1.80
2023-04-15T00:49:56.004Z,1.92
2023-04-15T00:52:58.256Z,1.80
2023-04-15T00:55:59.899Z,1.70
2023-04-15T00:59:09.265Z,1.85
2023-04-15T01:02:11.231Z,2.17
2023-04-15T01:05:14.989Z,2.10
2023-04-15T01:08:31.526Z,2.10
2023-04-15T01:14:41.369Z,2.00
2023-04-15T01:17:43.667Z,2.20
2023-04-15T01:20:48.343Z,1.98
2023-04-15T01:23:52.780Z,2.28
2023-04-15T01:27:23.464Z,2.50
2023-04-15T01:30:27.165Z,1.60
2023-04-15T01:33:39.702Z,1.60
2023-04-15T01:36:43.677Z,3.00
2023-04-15T01:39:45.494Z,2.10
2023-04-15T01:42:47.284Z,2.00
2023-04-15T01:45:50.584Z,2.10
2023-04-15T01:48:52.777Z,1.80
2023-04-15T01:51:57.336Z,1.70
2023-04-15T01:54:58.949Z,2.10
2023-04-15T01:58:01.293Z,1.52
2023-04-15T02:01:04.681Z,1.70
2023-04-15T02:04:07.333Z,2.03
2023-04-15T02:07:08.881Z,2.00
2023-04-15T02:10:19.781Z,2.28
2023-04-15T02:13:29.119Z,2.13
2023-04-15T02:16:38.085Z,2.28
2023-04-15T02:19:40.575Z,1.70
2023-04-15T02:22:48.741Z,1.80
2023-04-15T02:25:53.296Z,1.88
2023-04-15T02:28:56.268Z,1.80
2023-04-15T02:32:00.797Z,1.65
2023-04-15T02:35:04.044Z,1.40
2023-04-15T02:38:06.466Z,1.60
2023-04-15T02:41:09.442Z,1.75
2023-04-15T02:44:13.094Z,1.70
2023-04-15T02:47:15.976Z,3.33
2023-04-15T02:50:18.005Z,2.30
2023-04-15T02:53:20.105Z,1.60
2023-04-15T03:02:50.861Z,1.58
2023-04-15T03:05:52.654Z,1.90
2023-04-15T03:12:19.233Z,1.63
2023-04-15T03:15:21.554Z,1.80
2023-04-15T03:18:26.569Z,1.70
2023-04-15T03:21:31.486Z,1.90
2023-04-15T03:24:39.200Z,1.73
2023-04-15T03:27:41.641Z,1.70
2023-04-15T03:30:59.984Z,2.20
2023-04-15T03:34:02.538Z,2.00
2023-04-15T03:40:21.684Z,1.85
2023-04-15T03:43:26.448Z,1.92
2023-04-15T03:46:28.112Z,2.03
2023-04-15T03:49:38.187Z,1.55
2023-04-15T03:52:42.056Z,2.05
2023-04-15T03:55:54.248Z,2.35
2023-04-15T03:58:55.935Z,2.60
2023-04-15T04:01:57.645Z,2.75
2023-04-15T04:04:59.204Z,1.77
2023-04-15T04:08:00.704Z,2.00
2023-04-15T04:11:04.594Z,1.65
2023-04-15T04:14:08.202Z,1.90
2023-04-15T04:17:09.737Z,1.83
2023-04-15T04:20:17.313Z,1.85
2023-04-15T04:23:21.701Z,2.60
2023-04-15T04:29:49.911Z,2.65
2023-04-15T04:32:57.548Z,1.90
2023-04-15T04:35:59.087Z,2.13
2023-04-15T04:39:01.508Z,2.50
2023-04-15T04:42:04.546Z,2.50
2023-04-15T04:45:09.437Z,2.10
2023-04-15T04:48:11.523Z,2.70
2023-04-15T04:51:13.096Z,2.33
2023-04-15T04:54:16.195Z,2.15
2023-04-15T04:57:17.745Z,2.38
2023-04-15T05:00:19.351Z,2.40
2023-04-15T05:03:22.132Z,1.83
2023-04-15T05:09:42.433Z,1.80
2023-04-15T05:12:45.649Z,1.90
2023-04-15T05:15:47.339Z,2.15
2023-04-15T05:18:50.953Z,1.90
2023-04-15T05:21:55.574Z,2.30
2023-04-15T05:24:57.096Z,1.98
2023-04-15T05:27:58.665Z,2.53
2023-04-15T05:31:00.718Z,4.13
2023-04-15T05:34:02.331Z,4.07
2023-04-15T05:37:04.622Z,4.30
2023-04-15T05:40:06.643Z,4.38
2023-04-15T05:43:09.791Z,4.38
2023-04-15T05:46:11.425Z,4.40
2023-04-15T05:49:14.747Z,4.50
2023-04-15T05:52:22.083Z,5.38
2023-04-15T05:55:23.700Z,6.65
2023-04-15T05:58:25.280Z,4.40
2023-04-15T06:01:35.803Z,8.52
2023-04-15T06:04:56.268Z,5.80
2023-04-15T06:07:57.799Z,4.82
2023-04-15T06:11:01.640Z,4.30
2023-04-15T06:14:03.291Z,4.95
2023-04-15T06:20:20.408Z,4.53
2023-04-15T06:23:22.042Z,5.60
2023-04-15T06:26:23.664Z,4.95
2023-04-15T06:29:25.346Z,4.78
2023-04-15T06:32:27.022Z,3.67
2023-04-15T06:35:28.727Z,3.70
2023-04-15T06:38:33.833Z,4.88
2023-04-15T06:41:36.344Z,4.18
2023-04-15T06:45:04.373Z,4.32
2023-04-15T06:48:07.080Z,3.80
2023-04-15T06:51:08.657Z,3.67
2023-04-15T06:54:10.261Z,3.38
2023-04-15T06:57:11.860Z,3.00
2023-04-15T07:00:13.905Z,3.50
2023-04-15T07:03:15.717Z,2.50
2023-04-15T07:06:17.263Z,2.90
2023-04-15T07:09:18.769Z,3.53
2023-04-15T07:12:20.844Z,2.97
2023-04-15T07:15:23.563Z,3.40
2023-04-15T07:18:25.605Z,2.70
2023-04-15T07:24:50.245Z,2.55
2023-04-15T07:28:02.471Z,2.67
2023-04-15T07:31:08.063Z,2.67
2023-04-15T07:34:12.125Z,3.20
2023-04-15T07:37:13.987Z,3.00
2023-04-15T07:40:18.632Z,3.20
2023-04-15T07:43:21.307Z,2.78
2023-04-15T07:46:31.403Z,2.75
2023-04-15T07:49:32.953Z,2.70
2023-04-15T07:52:39.118Z,2.63
2023-04-15T07:58:56.164Z,2.92
2023-04-15T08:02:01.030Z,2.60
2023-04-15T08:05:04.383Z,3.05
2023-04-15T08:08:08.451Z,2.85
2023-04-15T08:11:12.137Z,2.75
2023-04-15T08:14:16.068Z,2.10
2023-04-15T08:17:17.763Z,2.40
2023-04-15T08:20:19.887Z,2.33
2023-04-15T08:23:21.488Z,1.98
2023-04-15T08:26:23.154Z,2.95
2023-04-15T08:29:24.705Z,3.38
2023-04-15T08:32:27.207Z,3.63
2023-04-15T08:35:31.977Z,3.20
2023-04-15T08:38:34.297Z,2.50
2023-04-15T08:42:11.962Z,3.13
2023-04-15T08:45:13.989Z,4.07
2023-04-15T08:48:22.793Z,3.58
2023-04-15T08:51:27.227Z,3.00
2023-04-15T08:54:29.268Z,2.47
2023-04-15T08:57:32.181Z,2.80
2023-04-15T09:00:37.678Z,3.35
2023-04-15T09:03:40.808Z,3.87
2023-04-15T09:06:44.994Z,4.50
2023-04-15T09:09:48.646Z,3.90
2023-04-15T09:12:50.321Z,4.75
2023-04-15T09:15:53.609Z,4.38
2023-04-15T09:19:27.748Z,4.00
2023-04-15T09:22:33.308Z,3.95
2023-04-15T09:25:50.565Z,3.60
2023-04-15T09:28:54.368Z,3.10
2023-04-15T09:31:56.204Z,2.97
2023-04-15T09:34:58.062Z,2.85
2023-04-15T09:38:12.833Z,3.47
2023-04-15T09:41:20.733Z,3.50
2023-04-15T09:44:27.122Z,4.38
2023-04-15T09:47:34.817Z,3.90
2023-04-15T09:50:41.236Z,3.25
2023-04-15T09:53:42.787Z,2.88
2023-04-15T09:56:50.380Z,3.00
2023-04-15T09:59:52.074Z,2.70
2023-04-15T10:03:19.093Z,2.28
2023-04-15T10:06:23.632Z,2.63
2023-04-15T10:09:25.167Z,2.03
2023-04-15T10:12:27.668Z,1.85
2023-04-15T10:15:34.034Z,2.20
2023-04-15T10:18:42.988Z,2.10
2023-04-15T10:21:50.253Z,2.20
2023-04-15T10:24:52.989Z,2.05
2023-04-15T10:27:56.496Z,2.08
2023-04-15T10:30:59.302Z,1.90
2023-04-15T10:34:13.724Z,1.85
2023-04-15T10:37:21.742Z,1.75
2023-04-15T10:40:37.748Z,1.70
2023-04-15T10:43:41.673Z,1.52
2023-04-15T10:46:45.370Z,1.60
2023-04-15T10:53:28.324Z,1.85
2023-04-15T10:56:39.492Z,1.80
2023-04-15T11:03:43.351Z,1.92
2023-04-15T11:06:45.791Z,1.90
2023-04-15T11:09:48.079Z,1.90
2023-04-15T11:13:11.505Z,1.83
2023-04-15T11:16:13.573Z,2.00
2023-04-15T11:22:30.708Z,1.73
2023-04-15T11:25:37.665Z,1.60
2023-04-15T11:28:41.839Z,1.67
2023-04-15T11:32:00.765Z,1.60
2023-04-15T11:35:02.368Z,1.60
2023-04-15T11:38:12.369Z,1.70
2023-04-15T11:41:13.930Z,1.52
2023-04-15T11:44:19.144Z,1.70
2023-04-15T11:47:30.638Z,1.53
2023-04-15T11:50:42.446Z,1.40
2023-04-15T11:53:57.813Z,1.42
2023-04-15T11:57:00.153Z,1.50
2023-04-15T12:00:01.870Z,1.27
2023-04-15T12:03:23.721Z,1.55
2023-04-15T12:06:27.868Z,1.30
2023-04-15T12:09:36.737Z,1.33
2023-04-15T12:12:41.038Z,1.30
2023-04-15T12:15:43.698Z,1.60
2023-04-15T12:18:56.121Z,1.40
2023-04-15T12:22:10.356Z,1.30
2023-04-15T12:25:12.246Z,1.30
2023-04-15T12:28:20.878Z,1.40
2023-04-15T12:31:23.832Z,1.50
2023-04-15T12:34:51.064Z,1.50
2023-04-15T12:38:18.047Z,1.55
2023-04-15T12:41:20.661Z,1.30
2023-04-15T12:44:34.465Z,1.58
2023-04-15T12:47:39.113Z,1.40
2023-04-15T12:50:44.250Z,1.40
2023-04-15T12:53:45.788Z,1.30
2023-04-15T12:56:48.965Z,1.33
2023-04-15T12:59:53.532Z,1.30
2023-04-15T13:02:55.123Z,1.23
2023-04-15T13:06:08.738Z,1.30
2023-04-15T13:09:10.813Z,1.20
2023-04-15T13:15:32.060Z,1.20
2023-04-15T13:22:08.799Z,1.40
2023-04-15T13:25:32.452Z,1.63
2023-04-15T13:28:34.566Z,1.50
2023-04-15T13:31:49.300Z,1.42
2023-04-15T13:35:16.310Z,1.50
2023-04-15T13:38:17.869Z,1.50
2023-04-15T13:41:21.135Z,2.00
2023-04-15T13:44:28.637Z,1.90
2023-04-15T13:47:32.707Z,1.70
2023-04-15T13:50:34.472Z,1.75
2023-04-15T13:53:51.567Z,1.65
2023-04-15T13:56:54.634Z,2.10
2023-04-15T13:59:56.345Z,2.28
2023-04-15T14:03:00.990Z,2.10
2023-04-15T14:06:02.690Z,2.13
2023-04-15T14:09:06.560Z,2.22
2023-04-15T14:12:15.473Z,1.70
2023-04-15T14:15:21.100Z,2.00
2023-04-15T14:18:26.584Z,1.98
2023-04-15T14:21:28.835Z,2.00
2023-04-15T14:24:30.431Z,2.00
2023-04-15T14:27:46.495Z,2.60
2023-04-15T14:30:48.088Z,2.13
2023-04-15T14:33:51.995Z,2.17
2023-04-15T14:36:56.454Z,1.77
2023-04-15T14:40:00.316Z,2.40
2023-04-15T14:43:07.956Z,2.38
2023-04-15T14:46:14.435Z,2.03
2023-04-15T14:52:27.353Z,2.00
2023-04-15T14:55:37.931Z,2.05
2023-04-15T14:58:39.458Z,2.05
2023-04-15T15:01:41.189Z,2.70
2023-04-15T15:08:01.480Z,2.38
2023-04-15T15:11:03.114Z,2.38
2023-04-15T15:17:20.262Z,1.85
2023-04-15T15:20:49.810Z,2.20
2023-04-15T15:24:00.699Z,2.15
2023-04-15T15:27:02.950Z,1.95
2023-04-15T15:30:06.492Z,2.15
2023-04-15T15:33:10.668Z,2.45
2023-04-15T15:36:16.150Z,2.33
2023-04-15T15:39:24.949Z,2.28
2023-04-15T15:42:26.847Z,2.60
2023-04-15T15:45:35.994Z,2.45
2023-04-15T15:51:59.060Z,2.10
2023-04-15T15:55:03.904Z,2.38
2023-04-15T15:58:05.663Z,2.38
2023-04-15T16:01:10.467Z,2.30
2023-04-15T16:04:12.194Z,2.30
2023-04-15T16:07:15.420Z,1.80
2023-04-15T16:10:17.545Z,2.03
2023-04-15T16:13:19.124Z,2.05
2023-04-15T16:16:22.073Z,2.35
2023-04-15T16:19:30.792Z,2.72
2023-04-15T16:22:34.241Z,3.15
2023-04-15T16:25:35.770Z,2.47
2023-04-15T16:28:37.398Z,2.40
2023-04-15T16:31:40.035Z,1.95
2023-04-15T16:34:41.617Z,2.30
2023-04-15T16:37:58.285Z,3.30
2023-04-15T16:44:03.760Z,3.17
2023-04-15T16:47:05.880Z,4.18
2023-04-15T16:50:18.340Z,3.42
2023-04-15T16:53:19.953Z,2.75
2023-04-15T16:56:22.139Z,2.72
2023-04-15T16:59:26.167Z,2.60
2023-04-15T17:02:31.344Z,2.65
2023-04-15T17:05:33.825Z,2.30
2023-04-15T17:08:41.304Z,2.72
2023-04-15T17:11:44.512Z,2.30
2023-04-15T17:14:46.168Z,2.33
2023-04-15T17:17:51.796Z,2.67
2023-04-15T17:21:12.265Z,2.45
2023-04-15T17:24:15.778Z,2.10
2023-04-15T17:27:19.696Z,2.55
2023-04-15T17:30:21.716Z,2.30
2023-04-15T17:34:00.534Z,2.20
2023-04-15T17:36:44.901Z,2.58
2023-04-15T17:39:49.281Z,2.47
2023-04-15T17:42:51.746Z,1.95
2023-04-15T17:45:59.545Z,1.83
2023-04-15T17:49:03.503Z,1.75
2023-04-15T17:52:05.385Z,1.98
2023-04-15T17:55:08.171Z,2.10
2023-04-15T17:58:09.865Z,1.90
2023-04-15T18:01:13.671Z,1.90
2023-04-15T18:04:15.812Z,2.10
2023-04-15T18:07:17.695Z,1.80
2023-04-15T18:10:20.668Z,1.60
2023-04-15T18:13:24.710Z,1.70
2023-04-15T18:16:31.936Z,1.80
2023-04-15T18:19:33.766Z,1.80
2023-04-15T18:22:35.619Z,1.35
2023-04-15T18:25:38.326Z,1.42
2023-04-15T18:28:39.960Z,1.40
2023-04-15T18:31:42.083Z,1.40
2023-04-15T18:34:46.472Z,1.50
2023-04-15T18:41:05.479Z,1.65
2023-04-15T18:44:14.578Z,1.80
2023-04-15T18:47:16.145Z,1.40
2023-04-15T18:50:19.972Z,1.48
2023-04-15T18:53:22.640Z,1.58
2023-04-15T18:56:26.399Z,2.58
2023-04-15T18:59:30.195Z,1.80
2023-04-15T19:02:32.888Z,2.08
2023-04-15T19:05:35.155Z,2.30
2023-04-15T19:08:36.700Z,2.20
2023-04-15T19:11:39.057Z,3.17
2023-04-15T19:14:41.353Z,2.25
2023-04-15T19:17:48.847Z,1.60
2023-04-15T19:20:52.203Z,1.60
2023-04-15T19:23:58.718Z,2.00
2023-04-15T19:30:03.335Z,1.85
2023-04-15T19:33:04.997Z,1.90
2023-04-15T19:36:07.554Z,1.80
2023-04-15T19:39:09.821Z,1.95
2023-04-15T19:42:11.354Z,1.73
2023-04-15T19:45:14.910Z,1.83
2023-04-15T19:48:16.875Z,2.00
2023-04-15T19:51:18.514Z,1.80
2023-04-15T19:54:20.113Z,3.00
2023-04-15T19:57:21.606Z,5.45
2023-04-15T20:00:23.230Z,3.55
2023-04-15T20:06:40.564Z,3.65
2023-04-15T20:09:46.361Z,2.47
2023-04-15T20:12:55.131Z,2.42
2023-04-15T20:15:56.928Z,2.38
2023-04-15T20:19:07.399Z,2.17
2023-04-15T20:22:10.842Z,2.28
2023-04-15T20:25:19.131Z,2.33
2023-04-15T20:28:29.307Z,2.42
2023-04-15T20:31:30.904Z,2.45
2023-04-15T20:34:32.684Z,2.33
2023-04-15T20:37:34.754Z,2.63
2023-04-15T20:40:36.505Z,4.00
2023-04-15T20:43:38.050Z,2.83
2023-04-15T20:46:39.606Z,3.40
2023-04-15T20:49:47.491Z,2.88
2023-04-15T20:52:54.253Z,2.80
2023-04-15T20:56:02.099Z,2.60
2023-04-15T21:02:23.660Z,3.47
2023-04-15T21:05:29.030Z,2.80
2023-04-15T21:08:31.560Z,2.40
2023-04-15T21:11:53.142Z,2.60
2023-04-15T21:15:03.711Z,2.92
2023-04-15T21:18:30.561Z,2.78
2023-04-15T21:21:35.488Z,2.90
2023-04-15T21:24:37.953Z,2.90
2023-04-15T21:27:39.596Z,3.33
2023-04-15T21:30:42.985Z,3.40
2023-04-15T21:33:46.362Z,3.45
2023-04-15T21:36:47.992Z,4.50
2023-04-15T21:39:49.684Z,4.15
2023-04-15T21:42:52.611Z,4.90
2023-04-15T21:46:22.385Z,3.88
2023-04-15T21:49:20.285Z,3.88
2023-04-15T21:52:24.390Z,3.90
2023-04-15T21:55:25.966Z,3.92
2023-04-15T21:58:30.447Z,4.28
2023-04-15T22:01:32.013Z,4.13
2023-04-15T22:04:33.546Z,3.80
2023-04-15T22:07:36.466Z,3.90
2023-04-15T22:10:38.945Z,4.43
2023-04-15T22:13:40.915Z,4.53
2023-04-15T22:20:03.761Z,3.90
2023-04-15T22:23:08.386Z,3.40
2023-04-15T22:26:10.103Z,4.63
2023-04-15T22:29:14.851Z,4.32
2023-04-15T22:32:17.094Z,5.00
2023-04-15T22:35:21.665Z,4.03
2023-04-15T22:38:24.761Z,4.95
2023-04-15T22:41:26.411Z,4.43
2023-04-15T22:44:27.938Z,4.40
2023-04-15T22:47:29.521Z,4.05
2023-04-15T22:50:37.945Z,4.50
2023-04-15T22:53:39.542Z,5.15
2023-04-15T22:56:41.053Z,5.28
2023-04-15T22:59:42.605Z,5.53
2023-04-15T23:02:44.189Z,5.25
2023-04-15T23:05:46.147Z,6.05
2023-04-15T23:08:47.881Z,5.60
2023-04-15T23:11:49.547Z,6.25
2023-04-15T23:14:51.144Z,6.28
2023-04-15T23:17:58.435Z,6.47
2023-04-15T23:21:00.048Z,6.75
2023-04-15T23:24:01.626Z,6.28
2023-04-15T23:27:06.301Z,7.03
2023-04-15T23:30:08.268Z,6.47
2023-04-15T23:33:12.822Z,7.40
2023-04-15T23:36:14.383Z,7.25
2023-04-15T23:39:18.279Z,7.93
2023-04-15T23:42:19.812Z,7.22
2023-04-15T23:45:21.374Z,6.90
2023-04-15T23:48:23.716Z,7.68
2023-04-15T23:51:34.239Z,6.70
2023-04-15T23:54:37.213Z,7.15
2023-04-15T23:57:41.499Z,6.22
